sensor_id;sensor_type;location;lat;lon;timestamp;temperature;humidity
39345;DHT22;25061;51.954;6.996;2023-09-19T04:31:08;12.90;99.90
39345;DHT22;25061;51.954;6.996;2023-09-19T04:33:34;12.90;99.90
39345;DHT22;25061;51.954;6.996;2023-09-19T04:36:00;12.90;99.90
39345;DHT22;25061;51.954;6.996;2023-09-19T04:38:26;12.90;99.90
39345;DHT22;25061;51.954;6.996;2023-09-19T04:40:57;12.90;99.90
39345;DHT22;25061;51.954;6.996;2023-09-19T04:43:23;12.80;99.90
39345;DHT22;25061;51.954;6.996;2023-09-19T04:45:49;12.80;99.90
39345;DHT22;25061;51.954;6.996;2023-09-19T04:48:16;12.80;99.90
39345;DHT22;25061;51.954;6.996;2023-09-19T04:50:42;12.80;99.90
39345;DHT22;25061;51.954;6.996;2023-09-19T04:53:08;12.80;99.90
39345;DHT22;25061;51.954;6.996;2023-09-19T04:55:33;12.80;99.90
39345;DHT22;25061;51.954;6.996;2023-09-19T04:57:59;12.80;99.90
39345;DHT22;25061;51.954;6.996;2023-09-19T05:00:25;12.80;99.90
39345;DHT22;25061;51.954;6.996;2023-09-19T05:02:55;12.80;99.90
39345;DHT22;25061;51.954;6.996;2023-09-19T05:05:23;12.80;99.90
39345;DHT22;25061;51.954;6.996;2023-09-19T05:07:51;12.70;99.90
39345;DHT22;25061;51.954;6.996;2023-09-19T05:10:20;12.70;99.90
39345;DHT22;25061;51.954;6.996;2023-09-19T05:12:47;12.70;99.90
39345;DHT22;25061;51.954;6.996;2023-09-19T05:15:14;12.80;99.90
39345;DHT22;25061;51.954;6.996;2023-09-19T05:17:48;12.70;99.90
39345;DHT22;25061;51.954;6.996;2023-09-19T05:20:14;12.70;99.90
39345;DHT22;25061;51.954;6.996;2023-09-19T05:22:44;12.70;99.90
39345;DHT22;25061;51.954;6.996;2023-09-19T05:25:12;12.70;99.90
39345;DHT22;25061;51.954;6.996;2023-09-19T05:27:42;12.70;99.90
39345;DHT22;25061;51.954;6.996;2023-09-19T05:30:08;12.60;99.90
39345;DHT22;25061;51.954;6.996;2023-09-19T05:32:34;12.70;99.90
39345;DHT22;25061;51.954;6.996;2023-09-19T05:34:59;12.80;99.90
39345;DHT22;25061;51.954;6.996;2023-09-19T05:37:25;12.80;99.90
39345;DHT22;25061;51.954;6.996;2023-09-19T05:39:51;12.80;99.90
39345;DHT22;25061;51.954;6.996;2023-09-19T05:42:19;12.90;99.90
39345;DHT22;25061;51.954;6.996;2023-09-19T05:44:44;12.90;99.90
39345;DHT22;25061;51.954;6.996;2023-09-19T05:47:10;12.90;99.90
39345;DHT22;25061;51.954;6.996;2023-09-19T05:49:41;12.90;99.90
39345;DHT22;25061;51.954;6.996;2023-09-19T05:52:06;13.00;99.90
39345;DHT22;25061;51.954;6.996;2023-09-19T05:54:32;13.00;99.90
39345;DHT22;25061;51.954;6.996;2023-09-19T05:57:00;13.10;99.90
39345;DHT22;25061;51.954;6.996;2023-09-19T05:59:27;13.20;99.90
39345;DHT22;25061;51.954;6.996;2023-09-19T06:01:52;13.20;99.90
39345;DHT22;25061;51.954;6.996;2023-09-19T06:04:18;13.30;99.90
39345;DHT22;25061;51.954;6.996;2023-09-19T06:06:47;13.30;99.90
39345;DHT22;25061;51.954;6.996;2023-09-19T06:09:14;13.30;99.90
39345;DHT22;25061;51.954;6.996;2023-09-19T06:11:43;13.30;99.90
39345;DHT22;25061;51.954;6.996;2023-09-19T06:14:09;13.30;99.90
39345;DHT22;25061;51.954;6.996;2023-09-19T06:16:36;13.40;99.90
39345;DHT22;25061;51.954;6.996;2023-09-19T06:19:04;13.40;99.90
39345;DHT22;25061;51.954;6.996;2023-09-19T06:21:34;13.40;99.90
39345;DHT22;25061;51.954;6.996;2023-09-19T06:23:59;13.50;99.90
39345;DHT22;25061;51.954;6.996;2023-09-19T06:26:26;13.50;99.90
39345;DHT22;25061;51.954;6.996;2023-09-19T06:28:52;13.50;99.90
39345;DHT22;25061;51.954;6.996;2023-09-19T06:31:18;13.60;99.90
39345;DHT22;25061;51.954;6.996;2023-09-19T06:33:48;13.60;99.90
39345;DHT22;25061;51.954;6.996;2023-09-19T06:36:14;13.60;99.90
39345;DHT22;25061;51.954;6.996;2023-09-19T06:38:40;13.60;99.90
39345;DHT22;25061;51.954;6.996;2023-09-19T06:41:06;13.70;99.90
39345;DHT22;25061;51.954;6.996;2023-09-19T06:43:34;13.70;99.90
39345;DHT22;25061;51.954;6.996;2023-09-19T06:46:03;13.70;99.90
39345;DHT22;25061;51.954;6.996;2023-09-19T06:48:30;13.80;99.90
39345;DHT22;25061;51.954;6.996;2023-09-19T06:50:57;13.70;99.90
39345;DHT22;25061;51.954;6.996;2023-09-19T06:53:24;13.80;99.90
39345;DHT22;25061;51.954;6.996;2023-09-19T06:55:50;13.90;99.90
39345;DHT22;25061;51.954;6.996;2023-09-19T06:58:16;13.80;99.90
39345;DHT22;25061;51.954;6.996;2023-09-19T07:00:42;13.90;99.90
39345;DHT22;25061;51.954;6.996;2023-09-19T07:03:08;14.00;99.90
39345;DHT22;25061;51.954;6.996;2023-09-19T07:05:37;14.10;99.90
39345;DHT22;25061;51.954;6.996;2023-09-19T07:08:05;14.10;99.90
39345;DHT22;25061;51.954;6.996;2023-09-19T07:10:32;14.20;99.90
39345;DHT22;25061;51.954;6.996;2023-09-19T07:13:04;14.20;99.90
39345;DHT22;25061;51.954;6.996;2023-09-19T07:15:32;14.30;99.90
39345;DHT22;25061;51.954;6.996;2023-09-19T07:17:59;14.30;99.90
39345;DHT22;25061;51.954;6.996;2023-09-19T07:20:26;14.40;99.90
39345;DHT22;25061;51.954;6.996;2023-09-19T07:22:57;14.40;99.90
39345;DHT22;25061;51.954;6.996;2023-09-19T07:25:25;14.50;99.90
39345;DHT22;25061;51.954;6.996;2023-09-19T07:27:51;14.50;99.90
39345;DHT22;25061;51.954;6.996;2023-09-19T07:30:17;14.50;99.90
39345;DHT22;25061;51.954;6.996;2023-09-19T07:32:45;14.50;99.90
39345;DHT22;25061;51.954;6.996;2023-09-19T07:35:11;14.50;99.90
39345;DHT22;25061;51.954;6.996;2023-09-19T07:37:37;14.50;99.90
39345;DHT22;25061;51.954;6.996;2023-09-19T07:40:03;14.60;99.90
39345;DHT22;25061;51.954;6.996;2023-09-19T07:42:33;14.60;99.90
39345;DHT22;25061;51.954;6.996;2023-09-19T07:45:01;14.70;99.90
39345;DHT22;25061;51.954;6.996;2023-09-19T07:47:26;14.70;99.90
39345;DHT22;25061;51.954;6.996;2023-09-19T07:49:53;14.70;99.90
39345;DHT22;25061;51.954;6.996;2023-09-19T07:52:20;14.80;99.90
39345;DHT22;25061;51.954;6.996;2023-09-19T07:54:46;14.80;99.90
39345;DHT22;25061;51.954;6.996;2023-09-19T07:57:13;14.80;99.90
39345;DHT22;25061;51.954;6.996;2023-09-19T07:59:40;14.80;99.90
39345;DHT22;25061;51.954;6.996;2023-09-19T08:02:08;14.90;99.90
39345;DHT22;25061;51.954;6.996;2023-09-19T08:04:44;14.90;99.90
39345;DHT22;25061;51.954;6.996;2023-09-19T08:07:14;15.00;99.90
39345;DHT22;25061;51.954;6.996;2023-09-19T08:09:44;15.00;99.90
39345;DHT22;25061;51.954;6.996;2023-09-19T08:12:12;15.10;99.90
39345;DHT22;25061;51.954;6.996;2023-09-19T08:14:38;15.10;99.90
39345;DHT22;25061;51.954;6.996;2023-09-19T08:17:03;15.20;99.90
39345;DHT22;25061;51.954;6.996;2023-09-19T08:19:33;15.10;99.90
39345;DHT22;25061;51.954;6.996;2023-09-19T08:21:59;15.10;99.90
39345;DHT22;25061;51.954;6.996;2023-09-19T08:24:29;15.20;99.90
39345;DHT22;25061;51.954;6.996;2023-09-19T08:26:58;15.20;99.90
39345;DHT22;25061;51.954;6.996;2023-09-19T08:29:25;15.40;99.90
39345;DHT22;25061;51.954;6.996;2023-09-19T08:32:04;15.40;99.90
39345;DHT22;25061;51.954;6.996;2023-09-19T08:34:34;15.60;99.90
39345;DHT22;25061;51.954;6.996;2023-09-19T08:37:04;15.80;99.90
39345;DHT22;25061;51.954;6.996;2023-09-19T08:39:30;15.90;99.90
39345;DHT22;25061;51.954;6.996;2023-09-19T08:42:00;15.90;99.90
39345;DHT22;25061;51.954;6.996;2023-09-19T08:44:27;15.90;99.90
39345;DHT22;25061;51.954;6.996;2023-09-19T08:47:08;16.00;99.90
39345;DHT22;25061;51.954;6.996;2023-09-19T08:50:01;15.90;99.90
39345;DHT22;25061;51.954;6.996;2023-09-19T08:52:37;16.00;99.90
39345;DHT22;25061;51.954;6.996;2023-09-19T08:55:07;16.10;99.90
39345;DHT22;25061;51.954;6.996;2023-09-19T08:57:37;16.10;99.90
39345;DHT22;25061;51.954;6.996;2023-09-19T09:00:13;16.10;99.90
39345;DHT22;25061;51.954;6.996;2023-09-19T09:02:45;16.30;99.90
39345;DHT22;25061;51.954;6.996;2023-09-19T09:05:15;16.30;99.90
39345;DHT22;25061;51.954;6.996;2023-09-19T09:07:42;16.30;99.90
39345;DHT22;25061;51.954;6.996;2023-09-19T09:10:09;16.20;99.90
39345;DHT22;25061;51.954;6.996;2023-09-19T09:12:35;16.20;99.90
39345;DHT22;25061;51.954;6.996;2023-09-19T09:15:06;16.40;99.90
39345;DHT22;25061;51.954;6.996;2023-09-19T09:17:34;16.20;99.90
39345;DHT22;25061;51.954;6.996;2023-09-19T09:20:00;16.40;99.90
39345;DHT22;25061;51.954;6.996;2023-09-19T09:22:25;16.50;99.90
39345;DHT22;25061;51.954;6.996;2023-09-19T09:24:56;16.60;99.90
39345;DHT22;25061;51.954;6.996;2023-09-19T09:27:29;16.40;99.90
39345;DHT22;25061;51.954;6.996;2023-09-19T09:29:55;16.50;99.90
39345;DHT22;25061;51.954;6.996;2023-09-19T09:32:25;16.40;99.90
39345;DHT22;25061;51.954;6.996;2023-09-19T09:34:53;16.50;99.90
39345;DHT22;25061;51.954;6.996;2023-09-19T09:37:20;16.50;99.90
39345;DHT22;25061;51.954;6.996;2023-09-19T09:39:53;16.50;99.90
39345;DHT22;25061;51.954;6.996;2023-09-19T09:42:33;16.60;99.90
39345;DHT22;25061;51.954;6.996;2023-09-19T09:45:18;16.60;99.90
39345;DHT22;25061;51.954;6.996;2023-09-19T09:48:00;16.70;99.90
39345;DHT22;25061;51.954;6.996;2023-09-19T09:50:32;16.50;99.90
39345;DHT22;25061;51.954;6.996;2023-09-19T09:53:19;16.80;99.90
39345;DHT22;25061;51.954;6.996;2023-09-19T09:56:01;16.90;99.90
39345;DHT22;25061;51.954;6.996;2023-09-19T09:58:28;17.00;99.90
39345;DHT22;25061;51.954;6.996;2023-09-19T10:01:04;17.00;99.90
39345;DHT22;25061;51.954;6.996;2023-09-19T10:03:40;17.00;99.90
39345;DHT22;25061;51.954;6.996;2023-09-19T10:06:10;16.90;99.90
39345;DHT22;25061;51.954;6.996;2023-09-19T10:09:19;16.90;99.90
39345;DHT22;25061;51.954;6.996;2023-09-19T10:12:05;17.10;99.90
39345;DHT22;25061;51.954;6.996;2023-09-19T10:14:35;17.20;99.90
39345;DHT22;25061;51.954;6.996;2023-09-19T10:17:10;17.40;99.90
39345;DHT22;25061;51.954;6.996;2023-09-19T10:19:56;17.50;99.90
39345;DHT22;25061;51.954;6.996;2023-09-19T10:22:31;17.40;99.90
39345;DHT22;25061;51.954;6.996;2023-09-19T10:24:58;17.30;99.90
39345;DHT22;25061;51.954;6.996;2023-09-19T10:27:26;17.20;99.90
39345;DHT22;25061;51.954;6.996;2023-09-19T10:29:55;17.20;99.90
39345;DHT22;25061;51.954;6.996;2023-09-19T10:32:25;17.10;99.90
39345;DHT22;25061;51.954;6.996;2023-09-19T10:34:52;17.20;99.90
39345;DHT22;25061;51.954;6.996;2023-09-19T10:37:22;17.20;99.90
39345;DHT22;25061;51.954;6.996;2023-09-19T10:39:52;17.20;99.90
39345;DHT22;25061;51.954;6.996;2023-09-19T10:42:20;17.60;99.90
39345;DHT22;25061;51.954;6.996;2023-09-19T10:44:51;17.60;99.90
39345;DHT22;25061;51.954;6.996;2023-09-19T10:47:20;17.80;99.90
39345;DHT22;25061;51.954;6.996;2023-09-19T10:49:49;17.70;99.90
39345;DHT22;25061;51.954;6.996;2023-09-19T10:52:19;17.70;99.90
39345;DHT22;25061;51.954;6.996;2023-09-19T10:54:48;17.80;99.90
39345;DHT22;25061;51.954;6.996;2023-09-19T10:57:21;18.00;99.90
39345;DHT22;25061;51.954;6.996;2023-09-19T11:05:41;17.80;99.90
39345;DHT22;25061;51.954;6.996;2023-09-19T11:08:07;17.70;99.90
39345;DHT22;25061;51.954;6.996;2023-09-19T11:10:50;17.80;99.90
39345;DHT22;25061;51.954;6.996;2023-09-19T11:26:50;18.10;99.90
39345;DHT22;25061;51.954;6.996;2023-09-19T11:29:30;18.20;99.90
39345;DHT22;25061;51.954;6.996;2023-09-19T11:31:57;18.10;99.90
39345;DHT22;25061;51.954;6.996;2023-09-19T11:39:39;17.90;99.90
39345;DHT22;25061;51.954;6.996;2023-09-19T11:42:44;18.00;99.90
39345;DHT22;25061;51.954;6.996;2023-09-19T11:48:13;18.00;99.90
39345;DHT22;25061;51.954;6.996;2023-09-19T11:50:44;17.90;99.90
39345;DHT22;25061;51.954;6.996;2023-09-19T11:53:13;18.00;99.90
39345;DHT22;25061;51.954;6.996;2023-09-19T11:55:42;18.10;99.90
39345;DHT22;25061;51.954;6.996;2023-09-19T11:58:15;18.00;99.90
39345;DHT22;25061;51.954;6.996;2023-09-19T12:00:43;18.10;99.90
39345;DHT22;25061;51.954;6.996;2023-09-19T12:03:12;18.10;99.90
39345;DHT22;25061;51.954;6.996;2023-09-19T12:05:40;18.00;99.90
39345;DHT22;25061;51.954;6.996;2023-09-19T12:08:07;18.20;99.90
39345;DHT22;25061;51.954;6.996;2023-09-19T12:10:47;18.30;99.90
39345;DHT22;25061;51.954;6.996;2023-09-19T12:13:18;18.20;99.90
39345;DHT22;25061;51.954;6.996;2023-09-19T12:15:44;18.10;99.90
39345;DHT22;25061;51.954;6.996;2023-09-19T12:18:29;18.20;99.90
39345;DHT22;25061;51.954;6.996;2023-09-19T12:20:56;18.30;99.90
39345;DHT22;25061;51.954;6.996;2023-09-19T12:23:23;18.30;99.90
39345;DHT22;25061;51.954;6.996;2023-09-19T12:25:51;18.30;99.90
39345;DHT22;25061;51.954;6.996;2023-09-19T12:28:19;18.20;99.90
39345;DHT22;25061;51.954;6.996;2023-09-19T12:30:48;18.30;99.90
39345;DHT22;25061;51.954;6.996;2023-09-19T12:33:16;18.40;99.90
39345;DHT22;25061;51.954;6.996;2023-09-19T12:35:44;18.40;99.90
39345;DHT22;25061;51.954;6.996;2023-09-19T12:38:10;18.30;99.90
39345;DHT22;25061;51.954;6.996;2023-09-19T12:40:38;18.30;99.90
39345;DHT22;25061;51.954;6.996;2023-09-19T12:43:08;18.40;99.90
39345;DHT22;25061;51.954;6.996;2023-09-19T12:45:36;18.40;99.90
39345;DHT22;25061;51.954;6.996;2023-09-19T12:48:25;18.40;99.90
39345;DHT22;25061;51.954;6.996;2023-09-19T12:51:12;18.50;99.90
39345;DHT22;25061;51.954;6.996;2023-09-19T12:56:08;18.50;99.90
39345;DHT22;25061;51.954;6.996;2023-09-19T12:58:57;18.40;99.90
39345;DHT22;25061;51.954;6.996;2023-09-19T13:01:28;18.40;99.90
39345;DHT22;25061;51.954;6.996;2023-09-19T13:04:17;18.40;99.90
39345;DHT22;25061;51.954;6.996;2023-09-19T13:06:52;18.40;99.90
39345;DHT22;25061;51.954;6.996;2023-09-19T13:09:20;18.50;99.90
39345;DHT22;25061;51.954;6.996;2023-09-19T13:11:46;18.60;99.90
39345;DHT22;25061;51.954;6.996;2023-09-19T13:14:26;18.80;99.90
39345;DHT22;25061;51.954;6.996;2023-09-19T13:17:10;18.60;99.90
39345;DHT22;25061;51.954;6.996;2023-09-19T13:19:44;19.10;99.90
39345;DHT22;25061;51.954;6.996;2023-09-19T13:25:15;19.00;99.90
39345;DHT22;25061;51.954;6.996;2023-09-19T13:27:48;18.80;99.90
39345;DHT22;25061;51.954;6.996;2023-09-19T13:30:17;18.70;99.90
39345;DHT22;25061;51.954;6.996;2023-09-19T13:32:43;18.70;99.90
39345;DHT22;25061;51.954;6.996;2023-09-19T13:35:09;18.60;99.90
39345;DHT22;25061;51.954;6.996;2023-09-19T13:37:35;18.60;99.90
39345;DHT22;25061;51.954;6.996;2023-09-19T13:40:05;18.60;99.90
39345;DHT22;25061;51.954;6.996;2023-09-19T13:42:30;18.50;99.90
39345;DHT22;25061;51.954;6.996;2023-09-19T13:44:57;18.50;99.90
39345;DHT22;25061;51.954;6.996;2023-09-19T13:47:23;18.60;99.90
39345;DHT22;25061;51.954;6.996;2023-09-19T13:49:50;18.40;99.90
39345;DHT22;25061;51.954;6.996;2023-09-19T13:52:22;18.40;99.90
39345;DHT22;25061;51.954;6.996;2023-09-19T13:54:51;18.40;99.90
39345;DHT22;25061;51.954;6.996;2023-09-19T13:57:18;18.40;99.90
39345;DHT22;25061;51.954;6.996;2023-09-19T13:59:43;18.30;99.90
39345;DHT22;25061;51.954;6.996;2023-09-19T14:02:09;18.30;99.90
39345;DHT22;25061;51.954;6.996;2023-09-19T14:04:35;18.30;99.90
39345;DHT22;25061;51.954;6.996;2023-09-19T14:07:01;18.30;99.90
39345;DHT22;25061;51.954;6.996;2023-09-19T14:09:30;18.30;99.90
39345;DHT22;25061;51.954;6.996;2023-09-19T14:11:56;18.30;99.90
39345;DHT22;25061;51.954;6.996;2023-09-19T14:14:22;18.40;99.90
39345;DHT22;25061;51.954;6.996;2023-09-19T14:16:48;18.40;99.90
39345;DHT22;25061;51.954;6.996;2023-09-19T14:19:14;18.40;99.90
39345;DHT22;25061;51.954;6.996;2023-09-19T14:21:42;18.30;99.90
39345;DHT22;25061;51.954;6.996;2023-09-19T14:24:07;18.30;99.90
39345;DHT22;25061;51.954;6.996;2023-09-19T14:26:40;18.40;99.90
39345;DHT22;25061;51.954;6.996;2023-09-19T14:29:06;18.40;99.90
39345;DHT22;25061;51.954;6.996;2023-09-19T14:31:37;18.40;99.90
39345;DHT22;25061;51.954;6.996;2023-09-19T14:34:05;18.30;99.90
39345;DHT22;25061;51.954;6.996;2023-09-19T14:36:32;18.40;99.90
39345;DHT22;25061;51.954;6.996;2023-09-19T14:38:58;18.30;99.90
39345;DHT22;25061;51.954;6.996;2023-09-19T14:41:25;18.20;99.90
39345;DHT22;25061;51.954;6.996;2023-09-19T14:43:52;18.20;99.90
39345;DHT22;25061;51.954;6.996;2023-09-19T14:46:18;18.10;99.90
39345;DHT22;25061;51.954;6.996;2023-09-19T14:48:44;18.20;99.90
39345;DHT22;25061;51.954;6.996;2023-09-19T14:51:14;18.10;99.90
39345;DHT22;25061;51.954;6.996;2023-09-19T14:53:42;18.30;99.90
39345;DHT22;25061;51.954;6.996;2023-09-19T14:56:09;18.50;99.90
39345;DHT22;25061;51.954;6.996;2023-09-19T14:58:35;18.50;99.90
39345;DHT22;25061;51.954;6.996;2023-09-19T15:01:13;18.40;99.90
39345;DHT22;25061;51.954;6.996;2023-09-19T15:03:40;18.50;99.90
39345;DHT22;25061;51.954;6.996;2023-09-19T15:06:11;18.40;99.90
39345;DHT22;25061;51.954;6.996;2023-09-19T15:08:40;18.40;99.90
39345;DHT22;25061;51.954;6.996;2023-09-19T15:11:09;18.30;99.90
39345;DHT22;25061;51.954;6.996;2023-09-19T15:13:36;18.40;99.90
39345;DHT22;25061;51.954;6.996;2023-09-19T15:16:03;18.40;99.90
39345;DHT22;25061;51.954;6.996;2023-09-19T15:18:30;18.40;99.90
39345;DHT22;25061;51.954;6.996;2023-09-19T15:21:05;18.40;99.90
39345;DHT22;25061;51.954;6.996;2023-09-19T15:23:34;18.40;99.90
39345;DHT22;25061;51.954;6.996;2023-09-19T15:26:01;18.40;99.90
39345;DHT22;25061;51.954;6.996;2023-09-19T15:28:28;18.40;99.90
39345;DHT22;25061;51.954;6.996;2023-09-19T15:31:06;18.40;99.90
39345;DHT22;25061;51.954;6.996;2023-09-19T15:33:33;18.30;99.90
39345;DHT22;25061;51.954;6.996;2023-09-19T15:36:08;18.30;99.90
39345;DHT22;25061;51.954;6.996;2023-09-19T15:38:57;18.40;99.90
39345;DHT22;25061;51.954;6.996;2023-09-19T15:41:23;18.40;99.90
39345;DHT22;25061;51.954;6.996;2023-09-19T15:43:49;18.40;99.90
39345;DHT22;25061;51.954;6.996;2023-09-19T15:46:15;18.30;99.90
39345;DHT22;25061;51.954;6.996;2023-09-19T15:48:41;18.30;99.90
39345;DHT22;25061;51.954;6.996;2023-09-19T15:51:07;18.20;99.90
39345;DHT22;25061;51.954;6.996;2023-09-19T15:53:52;18.20;99.90
39345;DHT22;25061;51.954;6.996;2023-09-19T15:56:19;18.20;99.90
39345;DHT22;25061;51.954;6.996;2023-09-19T15:58:47;18.10;99.90
39345;DHT22;25061;51.954;6.996;2023-09-19T16:01:14;18.10;99.90
39345;DHT22;25061;51.954;6.996;2023-09-19T16:03:43;18.10;99.90
39345;DHT22;25061;51.954;6.996;2023-09-19T16:06:10;18.00;99.90
39345;DHT22;25061;51.954;6.996;2023-09-19T16:08:43;18.00;99.90
39345;DHT22;25061;51.954;6.996;2023-09-19T16:11:09;18.00;99.90
39345;DHT22;25061;51.954;6.996;2023-09-19T16:13:36;18.00;99.90
39345;DHT22;25061;51.954;6.996;2023-09-19T16:16:02;18.00;99.90
39345;DHT22;25061;51.954;6.996;2023-09-19T16:18:29;18.00;99.90
39345;DHT22;25061;51.954;6.996;2023-09-19T16:21:04;17.90;99.90
39345;DHT22;25061;51.954;6.996;2023-09-19T16:23:31;17.90;99.90
39345;DHT22;25061;51.954;6.996;2023-09-19T16:26:05;17.90;99.90
39345;DHT22;25061;51.954;6.996;2023-09-19T16:28:32;17.80;99.90
39345;DHT22;25061;51.954;6.996;2023-09-19T16:31:00;17.80;99.90
39345;DHT22;25061;51.954;6.996;2023-09-19T16:33:31;17.80;99.90
39345;DHT22;25061;51.954;6.996;2023-09-19T16:35:57;17.80;99.90
39345;DHT22;25061;51.954;6.996;2023-09-19T16:38:25;17.80;99.90
39345;DHT22;25061;51.954;6.996;2023-09-19T16:40:58;17.70;99.90
39345;DHT22;25061;51.954;6.996;2023-09-19T16:43:25;17.80;99.90
39345;DHT22;25061;51.954;6.996;2023-09-19T16:46:04;17.80;99.90
39345;DHT22;25061;51.954;6.996;2023-09-19T16:48:33;17.80;99.90
39345;DHT22;25061;51.954;6.996;2023-09-19T16:51:02;17.70;99.90
39345;DHT22;25061;51.954;6.996;2023-09-19T16:53:29;17.70;99.90
39345;DHT22;25061;51.954;6.996;2023-09-19T16:56:00;17.70;99.90
39345;DHT22;25061;51.954;6.996;2023-09-19T16:58:25;17.70;99.90
39345;DHT22;25061;51.954;6.996;2023-09-19T17:00:52;17.70;99.90
39345;DHT22;25061;51.954;6.996;2023-09-19T17:03:18;17.70;99.90
39345;DHT22;25061;51.954;6.996;2023-09-19T17:05:44;17.60;99.90
39345;DHT22;25061;51.954;6.996;2023-09-19T17:08:12;17.70;99.90
39345;DHT22;25061;51.954;6.996;2023-09-19T17:10:38;17.70;99.90
39345;DHT22;25061;51.954;6.996;2023-09-19T17:13:08;17.80;99.90
39345;DHT22;25061;51.954;6.996;2023-09-19T17:15:37;17.70;99.90
39345;DHT22;25061;51.954;6.996;2023-09-19T17:18:03;17.70;99.90
39345;DHT22;25061;51.954;6.996;2023-09-19T17:20:29;17.70;99.90
39345;DHT22;25061;51.954;6.996;2023-09-19T17:22:56;17.70;99.90
39345;DHT22;25061;51.954;6.996;2023-09-19T17:25:22;17.70;99.90
39345;DHT22;25061;51.954;6.996;2023-09-19T17:27:48;17.70;99.90
39345;DHT22;25061;51.954;6.996;2023-09-19T17:30:15;17.70;99.90
39345;DHT22;25061;51.954;6.996;2023-09-19T17:32:41;17.60;99.90
39345;DHT22;25061;51.954;6.996;2023-09-19T17:35:07;17.60;99.90
39345;DHT22;25061;51.954;6.996;2023-09-19T17:37:35;17.60;99.90
39345;DHT22;25061;51.954;6.996;2023-09-19T17:40:01;17.60;99.90
39345;DHT22;25061;51.954;6.996;2023-09-19T17:42:31;17.60;99.90
39345;DHT22;25061;51.954;6.996;2023-09-19T17:44:57;17.60;99.90
39345;DHT22;25061;51.954;6.996;2023-09-19T17:47:22;17.60;99.90
39345;DHT22;25061;51.954;6.996;2023-09-19T17:49:48;17.60;99.90
39345;DHT22;25061;51.954;6.996;2023-09-19T17:52:17;17.60;99.90
39345;DHT22;25061;51.954;6.996;2023-09-19T17:54:45;17.60;99.90
39345;DHT22;25061;51.954;6.996;2023-09-19T17:57:11;17.60;99.90
39345;DHT22;25061;51.954;6.996;2023-09-19T17:59:36;17.60;99.90
39345;DHT22;25061;51.954;6.996;2023-09-19T18:02:02;17.60;99.90
39345;DHT22;25061;51.954;6.996;2023-09-19T18:04:28;17.60;99.90
39345;DHT22;25061;51.954;6.996;2023-09-19T18:06:55;17.60;99.90
39345;DHT22;25061;51.954;6.996;2023-09-19T18:09:21;17.60;99.90
39345;DHT22;25061;51.954;6.996;2023-09-19T18:11:47;17.60;99.90
39345;DHT22;25061;51.954;6.996;2023-09-19T18:14:13;17.60;99.90
39345;DHT22;25061;51.954;6.996;2023-09-19T18:16:43;17.60;99.90
39345;DHT22;25061;51.954;6.996;2023-09-19T18:19:09;17.60;99.90
39345;DHT22;25061;51.954;6.996;2023-09-19T18:21:34;17.60;99.90
39345;DHT22;25061;51.954;6.996;2023-09-19T18:24:00;17.60;99.90
39345;DHT22;25061;51.954;6.996;2023-09-19T18:26:29;17.60;99.90
39345;DHT22;25061;51.954;6.996;2023-09-19T18:28:55;17.60;99.90
39345;DHT22;25061;51.954;6.996;2023-09-19T18:31:21;17.60;99.90
39345;DHT22;25061;51.954;6.996;2023-09-19T18:33:46;17.60;99.90
39345;DHT22;25061;51.954;6.996;2023-09-19T18:36:17;17.50;99.90
39345;DHT22;25061;51.954;6.996;2023-09-19T18:38:43;17.50;99.90
39345;DHT22;25061;51.954;6.996;2023-09-19T18:41:11;17.60;99.90
39345;DHT22;25061;51.954;6.996;2023-09-19T18:43:37;17.50;99.90
39345;DHT22;25061;51.954;6.996;2023-09-19T18:46:04;17.50;99.90
39345;DHT22;25061;51.954;6.996;2023-09-19T18:48:41;17.60;99.90
39345;DHT22;25061;51.954;6.996;2023-09-19T18:51:10;17.50;99.90
39345;DHT22;25061;51.954;6.996;2023-09-19T18:53:37;17.50;99.90
39345;DHT22;25061;51.954;6.996;2023-09-19T18:58:30;17.40;99.90
39345;DHT22;25061;51.954;6.996;2023-09-19T19:01:06;17.40;99.90
39345;DHT22;25061;51.954;6.996;2023-09-19T19:03:32;17.40;99.90
39345;DHT22;25061;51.954;6.996;2023-09-19T19:06:04;17.30;99.90
39345;DHT22;25061;51.954;6.996;2023-09-19T19:08:30;17.30;99.90
39345;DHT22;25061;51.954;6.996;2023-09-19T19:10:57;17.30;99.90
39345;DHT22;25061;51.954;6.996;2023-09-19T19:13:23;17.30;99.90
39345;DHT22;25061;51.954;6.996;2023-09-19T19:15:48;17.30;99.90
39345;DHT22;25061;51.954;6.996;2023-09-19T19:18:14;17.30;99.90
39345;DHT22;25061;51.954;6.996;2023-09-19T19:20:39;17.40;99.90
39345;DHT22;25061;51.954;6.996;2023-09-19T19:23:07;17.30;99.90
39345;DHT22;25061;51.954;6.996;2023-09-19T19:25:34;17.40;99.90
39345;DHT22;25061;51.954;6.996;2023-09-19T19:28:00;17.30;99.90
39345;DHT22;25061;51.954;6.996;2023-09-19T19:30:26;17.30;99.90
39345;DHT22;25061;51.954;6.996;2023-09-19T19:32:52;17.20;99.90
39345;DHT22;25061;51.954;6.996;2023-09-19T19:35:17;17.20;99.90
39345;DHT22;25061;51.954;6.996;2023-09-19T19:37:43;17.10;99.90
39345;DHT22;25061;51.954;6.996;2023-09-19T19:40:10;17.10;99.90
39345;DHT22;25061;51.954;6.996;2023-09-19T19:42:36;17.10;99.90
39345;DHT22;25061;51.954;6.996;2023-09-19T19:45:02;17.10;99.90
39345;DHT22;25061;51.954;6.996;2023-09-19T19:47:30;17.00;99.90
39345;DHT22;25061;51.954;6.996;2023-09-19T19:49:55;17.10;99.90
39345;DHT22;25061;51.954;6.996;2023-09-19T19:52:24;17.10;99.90
39345;DHT22;25061;51.954;6.996;2023-09-19T19:54:50;17.10;99.90
39345;DHT22;25061;51.954;6.996;2023-09-19T19:57:16;17.10;99.90
39345;DHT22;25061;51.954;6.996;2023-09-19T19:59:43;17.10;99.90
39345;DHT22;25061;51.954;6.996;2023-09-19T20:02:08;17.10;99.90
39345;DHT22;25061;51.954;6.996;2023-09-19T20:04:34;17.10;99.90
39345;DHT22;25061;51.954;6.996;2023-09-19T20:07:00;17.10;99.90
39345;DHT22;25061;51.954;6.996;2023-09-19T20:09:25;17.20;99.90
39345;DHT22;25061;51.954;6.996;2023-09-19T20:11:51;17.10;99.90
39345;DHT22;25061;51.954;6.996;2023-09-19T20:14:16;17.20;99.90
39345;DHT22;25061;51.954;6.996;2023-09-19T20:16:42;17.10;99.90
39345;DHT22;25061;51.954;6.996;2023-09-19T20:19:09;17.10;99.90
39345;DHT22;25061;51.954;6.996;2023-09-19T20:21:35;17.20;99.90
39345;DHT22;25061;51.954;6.996;2023-09-19T20:24:02;17.20;99.90
39345;DHT22;25061;51.954;6.996;2023-09-19T20:26:35;17.10;99.90
39345;DHT22;25061;51.954;6.996;2023-09-19T20:29:05;17.20;99.90
39345;DHT22;25061;51.954;6.996;2023-09-19T20:31:31;17.10;99.90
39345;DHT22;25061;51.954;6.996;2023-09-19T20:33:59;17.20;99.90
39345;DHT22;25061;51.954;6.996;2023-09-19T20:36:25;17.20;99.90
39345;DHT22;25061;51.954;6.996;2023-09-19T20:38:50;17.20;99.90
39345;DHT22;25061;51.954;6.996;2023-09-19T20:41:22;17.20;99.90
39345;DHT22;25061;51.954;6.996;2023-09-19T20:43:48;17.20;99.90
39345;DHT22;25061;51.954;6.996;2023-09-19T20:46:13;17.20;99.90